CW6734 Weather Reports


Display with metric or nautical units.
time (UTC)temp
F
wind
direction
speed
MPH
gust
MPH
rain 1hr
in
rain 24hr
in
rain mn
in
humidity
%
barometer
mb
20170430183812 77 300 6.0 27.0 0.00 0.21 0.21 63 1014.0
20170430181007 79 229 4.0 16.0 0.00 0.21 0.21 66 1013.6
20170430180408 79 296 4.0 15.0 0.00 0.21 0.21 67 1013.7
20170430180057 79 219 4.0 16.0 0.00 0.21 0.21 63 1013.6
20170430175146 81 209 4.0 19.0 0.00 0.21 0.21 57 1013.7
20170430174539 81 242 5.0 19.0 0.00 0.21 0.21 56 1013.6
20170430174234 81 258 5.0 19.0 0.00 0.21 0.21 57 1013.6
20170430173934 82 213 6.0 19.0 0.00 0.21 0.21 55 1013.5
20170430173310 82 263 5.0 19.0 0.00 0.21 0.21 54 1013.7
20170430173007 83 292 4.0 17.0 0.00 0.21 0.21 60 1013.7
20170430172653 83 261 4.0 17.0 0.00 0.21 0.21 55 1013.7
20170430172355 83 279 5.0 17.0 0.00 0.21 0.21 54 1013.7
20170430172050 82 313 5.0 17.0 0.00 0.21 0.21 58 1013.7
20170430171435 82 267 5.0 17.0 0.00 0.21 0.21 58 1013.8
20170430170154 81 206 4.0 17.0 0.00 0.21 0.21 59 1014.1
20170430165848 81 291 5.0 19.0 0.00 0.21 0.21 58 1014.0
20170430165543 81 271 4.0 19.0 0.00 0.21 0.21 56 1014.2
20170430165247 82 190 4.0 19.0 0.00 0.21 0.21 58 1014.0
20170430164633 81 5 5.0 19.0 0.00 0.21 0.21 58 1014.2
20170430164037 81 180 5.0 19.0 0.00 0.21 0.21 58 1014.4
20170430163726 81 229 5.0 17.0 0.00 0.21 0.21 58 1014.2
20170430163113 81 191 4.0 17.0 0.00 0.21 0.21 59 1014.5
20170430162807 81 200 3.0 16.0 0.00 0.21 0.21 60 1014.6
20170430162455 81 172 3.0 15.0 0.00 0.23 0.21 60 1014.5
20170430162147 81 238 2.0 15.0 0.00 0.23 0.21 61 1014.6
20170430161843 81 294 3.0 15.0 0.00 0.24 0.21 62 1014.5
20170430161544 81 290 3.0 15.0 0.00 0.25 0.21 62 1014.5
20170430160941 80 272 4.0 17.0 0.00 0.27 0.21 60 1014.5
20170430160322 79 289 4.0 17.0 0.00 0.28 0.21 63 1014.6
20170430155054 78 244 3.0 15.0 0.00 0.32 0.21 66 1014.8
20170430154755 78 211 2.0 9.0 0.00 0.33 0.21 66 1014.7
20170430154458 78 230 2.0 9.0 0.00 0.33 0.21 70 1014.8
20170430153856 78 263 3.0 9.0 0.00 0.34 0.21 69 1014.8
20170430153241 77 223 2.0 8.0 0.00 0.37 0.21 75 1015.0
20170430152928 77 223 1.0 8.0 0.00 0.39 0.21 76 1015.0
20170430152317 76 236 1.0 8.0 0.00 0.40 0.21 78 1015.0
20170430152007 75 332 1.0 8.0 0.00 0.41 0.21 81 1014.9
20170430151353 74 257 1.0 8.0 0.00 0.43 0.21 81 1014.8
20170430150743 73 165 1.0 4.0 0.00 0.50 0.21 82 1014.9
20170430144549 70 156 0.0 4.0 0.00 0.79 0.21 92 1015.2
20170430144235 69 258 1.0 4.0 0.00 0.79 0.21 93 1015.2
20170430143309 68 206 0.0 4.0 0.00 0.83 0.21 93 1015.1
20170430143001 68 202 0.0 4.0 0.00 0.84 0.21 93 1015.0
20170430142651 67 181 0.0 4.0 0.00 0.84 0.21 93 1015.0
20170430142348 66 191 1.0 6.0 0.00 0.85 0.21 93 1015.2
20170430141727 66 130 1.0 6.0 0.00 0.86 0.21 93 1015.3
20170430141422 65 154 1.0 4.0 0.00 0.86 0.21 93 1015.4
20170430140821 65 177 1.0 4.0 0.00 0.87 0.21 93 1015.4
20170430140512 65 178 1.0 3.0 0.00 0.87 0.21 93 1015.4
20170430140212 64 184 0.0 0.0 0.00 0.87 0.21 93 1015.5
20170430135909 64 83 1.0 6.0 0.00 0.87 0.21 93 1015.5
20170430135608 64 242 0.0 3.0 0.00 0.87 0.21 93 1015.6
20170430135305 63 192 0.0 3.0 0.00 0.87 0.21 93 1015.6
20170430134956 63 219 0.0 3.0 0.00 0.87 0.21 93 1015.7
20170430134654 63 220 0.0 3.0 0.00 0.87 0.21 93 1015.7
20170430134346 62 155 0.0 3.0 0.00 0.87 0.21 93 1015.6
20170430133425 62 171 0.0 3.0 0.00 0.88 0.21 93 1015.7
20170430132818 61 157 0.0 3.0 0.00 0.88 0.21 93 1015.8
20170430131553 61 147 0.0 3.0 0.00 0.88 0.21 93 1015.8
20170430131257 61 186 0.0 3.0 0.00 0.88 0.21 93 1015.8
20170430131000 61 156 0.0 3.0 0.00 0.88 0.21 93 1015.8
20170430130700 61 111 0.0 2.0 0.00 0.88 0.21 93 1015.8
20170430130054 60 106 0.0 0.0 0.00 0.88 0.21 93 1015.7
20170430125750 60 88 0.0 0.0 0.00 0.88 0.21 93 1015.7
20170430125450 60 89 0.0 2.0 0.00 0.88 0.21 93 1015.7
20170430125138 59 128 0.0 2.0 0.00 0.88 0.21 93 1015.7
20170430124841 59 136 0.0 4.0 0.00 0.88 0.21 93 1015.7
20170430124531 59 49 0.0 4.0 0.00 0.88 0.21 93 1015.7
20170430124224 59 61 0.0 4.0 0.00 0.88 0.21 93 1015.7
20170430123921 59 105 1.0 4.0 0.00 0.88 0.21 93 1015.6
20170430123612 59 123 0.0 4.0 0.00 0.88 0.21 93 1015.7
20170430123304 59 91 0.0 4.0 0.00 0.88 0.21 93 1015.7
20170430122957 59 167 0.0 4.0 0.00 0.88 0.21 93 1015.6
20170430122346 58 126 0.0 3.0 0.00 0.88 0.21 93 1015.9
20170430122040 58 133 0.0 2.0 0.00 0.88 0.21 93 1015.9
20170430121729 58 107 0.0 1.0 0.00 0.88 0.21 93 1015.9
20170430121429 58 146 0.0 1.0 0.00 0.88 0.21 93 1015.9
20170430121124 58 61 0.0 2.0 0.00 0.88 0.21 93 1015.9
20170430120810 58 71 0.0 2.0 0.00 0.88 0.21 93 1015.9
20170430120457 58 144 0.0 2.0 0.00 0.88 0.21 93 1016.0
20170430115902 58 117 0.0 2.0 0.00 0.88 0.21 93 1016.1
20170430115559 57 84 0.0 2.0 0.00 0.88 0.21 93 1016.1
20170430115248 57 144 0.0 2.0 0.00 0.88 0.21 93 1016.1
20170430114944 57 144 0.0 2.0 0.00 0.88 0.21 93 1016.1
20170430114326 57 146 0.0 1.0 0.00 0.88 0.21 93 1016.1
20170430113724 57 146 0.0 2.0 0.00 0.88 0.21 93 1016.1
20170430113121 57 123 0.0 2.0 0.00 0.88 0.21 93 1016.1
20170430112814 57 145 0.0 1.0 0.00 0.88 0.21 93 1016.0
20170430112512 57 114 0.0 1.0 0.00 0.88 0.21 93 1016.0
20170430112206 57 259 0.0 3.0 0.00 0.88 0.21 93 1015.9
20170430111906 57 162 0.0 3.0 0.00 0.88 0.21 93 1015.8
20170430111605 57 160 0.0 3.0 0.00 0.88 0.21 93 1015.8
20170430111305 57 121 0.0 0.0 0.00 0.88 0.21 93 1015.9
20170430110657 57 121 0.0 1.0 0.00 0.88 0.21 93 1015.8
20170430110040 57 114 0.0 0.0 0.00 0.88 0.21 93 1015.9
20170430105728 57 113 0.0 0.0 0.00 0.88 0.21 93 1015.9
20170430105123 57 106 0.0 0.0 0.00 0.88 0.21 93 1015.9
20170430104810 57 106 0.0 0.0 0.00 0.88 0.21 93 1016.0
20170430104508 57 106 0.0 1.0 0.00 0.88 0.21 93 1016.0
20170430103905 56 106 0.0 1.0 0.00 0.89 0.21 93 1015.9
20170430103601 57 173 0.0 0.0 0.00 0.91 0.21 93 1015.9
20170430102937 56 173 0.0 0.0 0.00 0.93 0.21 93 1015.8
20170430101658 56 173 0.0 0.0 0.00 0.94 0.21 93 1015.5
20170430100432 56 139 0.0 2.0 0.00 0.96 0.21 93 1015.4
20170430100125 56 45 0.0 0.0 0.00 0.96 0.21 93 1015.3
20170430095822 56 38 0.0 2.0 0.00 0.96 0.21 93 1015.4
20170430095517 56 146 0.0 0.0 0.00 0.97 0.21 93 1015.3
20170430095219 56 57 0.0 2.0 0.00 0.97 0.21 93 1015.2
20170430094559 56 64 0.0 4.0 0.00 0.97 0.21 92 1015.1
20170430094255 56 191 0.0 4.0 0.00 0.97 0.21 92 1015.0
20170430093644 56 225 0.0 4.0 0.00 0.98 0.21 92 1015.2
20170430092735 56 97 0.0 1.0 0.00 0.99 0.21 92 1015.0
20170430092423 56 97 0.0 0.0 0.00 1.00 0.21 92 1015.0
20170430092118 56 97 0.0 3.0 0.00 1.00 0.21 92 1015.1
20170430091813 56 130 0.0 3.0 0.00 1.01 0.21 93 1015.2
20170430091503 56 56 0.0 5.0 0.00 1.01 0.21 93 1015.2
20170430091159 56 56 0.0 5.0 0.00 1.02 0.21 93 1015.1
20170430090859 56 80 0.0 5.0 0.00 1.02 0.21 93 1015.3
20170430090248 56 51 0.0 5.0 0.00 1.02 0.21 93 1015.4
20170430085950 56 147 0.0 5.0 0.00 1.02 0.21 93 1015.3
20170430085639 56 83 0.0 5.0 0.00 1.03 0.21 93 1015.1
20170430085332 56 115 0.0 4.0 0.00 1.03 0.21 93 1015.3
20170430084714 56 112 0.0 7.0 0.00 1.03 0.21 93 1015.3
20170430084403 55 355 0.0 7.0 0.00 1.04 0.21 92 1015.3
20170430084101 55 30 0.0 7.0 0.00 1.04 0.21 92 1015.5
20170430083749 55 36 0.0 7.0 0.00 1.04 0.21 92 1015.6
20170430083440 55 127 0.0 7.0 0.00 1.04 0.21 92 1015.7
20170430083140 55 71 0.0 7.0 0.00 1.05 0.21 92 1015.7
20170430082839 55 355 0.0 3.0 0.00 1.05 0.21 92 1015.7
20170430082538 55 53 0.0 3.0 0.00 1.05 0.21 92 1015.6
20170430081932 55 46 0.0 0.0 0.00 1.06 0.21 92 1015.9
20170430081633 55 117 0.0 2.0 0.00 1.06 0.21 92 1015.8
20170430081016 55 121 0.0 3.0 0.00 1.07 0.21 92 1015.7
20170430080711 55 92 0.0 3.0 0.00 1.07 0.21 92 1015.8
20170430075447 55 132 0.0 3.0 0.04 1.08 0.21 92 1016.0
20170430075147 55 40 0.0 3.0 0.06 1.09 0.21 92 1015.9
20170430074841 55 103 0.0 3.0 0.08 1.09 0.21 92 1015.9
20170430074541 55 61 0.0 3.0 0.13 1.10 0.21 92 1015.9
20170430073925 55 71 2.0 9.0 2.53 1.07 0.20 92 1015.9
20170430073622 55 133 2.0 9.0 2.88 0.99 0.12 92 1016.7
20170430073315 55 53 2.0 9.0 0.98 0.93 0.04 92 1017.6
20170430073013 55 299 1.0 7.0 0.00 0.91 0.00 92 1017.8
20170430072407 55 229 1.0 5.0 0.00 0.91 0.00 92 1015.8
20170430071743 55 61 0.0 4.0 0.00 0.93 0.00 92 1015.5
20170430071438 54 26 0.0 4.0 0.00 0.93 0.00 92 1015.6
20170430070815 54 57 0.0 4.0 0.00 0.94 0.00 92 1015.7
20170430070505 54 121 1.0 4.0 0.00 0.96 0.00 92 1015.7
20170430070158 54 44 1.0 5.0 0.00 0.96 0.00 92 1015.7
20170430065848 54 355 1.0 5.0 0.00 0.96 0.00 92 1015.6
20170430064605 54 32 1.0 7.0 0.00 0.97 0.00 92 1015.7
20170430064302 54 12 1.0 7.0 0.00 0.97 0.00 92 1015.7
20170430063959 54 142 1.0 7.0 0.00 0.97 0.00 92 1015.8
20170430063359 54 24 1.0 7.0 0.00 0.97 0.00 92 1015.9
20170430063055 54 104 1.0 4.0 0.00 0.97 0.00 92 1016.0
20170430062749 54 32 1.0 5.0 0.00 0.97 0.00 92 1016.1
20170430061828 54 311 1.0 6.0 0.00 0.97 0.00 92 1016.3
20170430061517 54 34 1.0 6.0 0.00 0.97 0.00 92 1016.2
20170430061211 54 5 1.0 6.0 0.00 0.97 0.00 92 1016.2
20170430060906 54 95 2.0 6.0 0.00 0.97 0.00 92 1016.2
20170430060600 54 42 1.0 6.0 0.00 0.97 0.00 92 1016.4
20170430055949 54 71 1.0 5.0 0.00 0.97 0.00 92 1016.5
20170430055048 54 21 1.0 5.0 0.00 0.97 0.00 92 1016.8
20170430054736 54 100 1.0 5.0 0.00 0.97 0.00 92 1017.0
20170430054433 54 0 1.0 5.0 0.00 0.97 0.00 92 1017.0
20170430054121 54 355 1.0 8.0 0.00 0.97 0.00 92 1017.0
20170430053818 54 88 1.0 8.0 0.00 0.97 0.00 92 1017.2
20170430053511 54 59 1.0 8.0 0.00 0.97 0.00 92 1017.2
20170430052901 54 132 1.0 8.0 0.00 0.97 0.00 92 1017.3
20170430052307 54 106 1.0 8.0 0.00 0.97 0.00 92 1017.2
20170430052011 54 53 1.0 6.0 0.00 0.97 0.00 92 1017.3
20170430051704 54 63 1.0 6.0 0.00 0.97 0.00 92 1017.4
20170430051407 54 16 1.0 8.0 0.00 0.97 0.00 92 1017.4
20170430051102 54 355 2.0 8.0 0.00 0.97 0.00 92 1017.4
20170430050802 54 61 2.0 8.0 0.00 0.97 0.00 92 1017.3
20170430050453 54 38 2.0 8.0 0.00 0.97 0.00 92 1017.3
20170430050148 54 340 1.0 8.0 0.00 0.97 0.00 92 1017.3
20170430045841 54 323 1.0 8.0 0.00 0.97 0.00 92 1017.3
20170430045544 54 57 1.0 8.0 0.00 0.97 0.00 92 1017.4
20170430045237 53 30 1.0 6.0 0.00 0.97 0.00 92 1017.4
20170430044925 53 57 1.0 6.0 0.00 0.97 0.00 92 1017.5
20170430044309 53 36 1.0 6.0 0.00 0.97 0.00 92 1017.5
20170430044010 53 17 1.0 8.0 0.00 0.97 0.00 92 1017.5
20170430043348 53 74 1.0 8.0 0.00 0.97 0.00 92 1017.1
20170430043052 53 43 2.0 8.0 0.00 0.97 0.00 92 1017.3
20170430042752 53 40 2.0 8.0 0.00 0.97 0.00 92 1017.4
20170430042142 53 323 2.0 8.0 0.00 0.97 0.00 92 1017.7
20170430041841 53 147 1.0 8.0 0.00 0.97 0.00 92 1017.9
20170430041533 53 22 2.0 8.0 0.00 0.97 0.00 92 1018.0
20170430041237 53 74 2.0 8.0 0.00 0.97 0.00 92 1017.9
20170430040931 53 63 2.0 7.0 0.00 0.97 0.00 92 1017.8
20170430040624 53 100 2.0 11.0 0.00 0.97 0.00 92 1017.9
20170430040016 53 71 2.0 11.0 0.00 0.97 0.00 92 1017.9
20170430035716 53 34 2.0 11.0 0.00 0.97 0.97 92 1018.0
20170430035403 53 52 2.0 11.0 0.00 0.97 0.97 92 1018.1
20170430033855 53 63 2.0 11.0 0.00 0.97 0.97 91 1018.3
20170430033258 53 35 1.0 11.0 0.00 0.97 0.97 91 1018.4
20170430033001 53 51 2.0 11.0 0.00 0.97 0.97 91 1018.5
20170430032704 53 49 2.0 11.0 0.00 0.98 0.97 91 1018.5
20170430031748 53 65 2.0 8.0 0.00 0.98 0.97 91 1018.7
20170430031435 53 5 2.0 8.0 0.00 0.98 0.97 91 1018.5
20170430031127 53 42 2.0 9.0 0.00 0.98 0.97 91 1018.8
20170430030208 53 40 2.0 9.0 0.00 0.99 0.97 91 1018.7
20170430025555 53 48 2.0 9.0 0.00 1.00 0.97 91 1018.5
20170430024956 53 53 2.0 8.0 0.00 1.01 0.97 91 1018.4
20170430024651 53 64 2.0 8.0 0.00 1.02 0.97 91 1018.5
20170430024345 53 145 2.0 12.0 0.00 1.04 0.97 91 1018.7
20170430024037 53 47 2.0 12.0 0.00 1.10 0.97 91 1018.6
20170430023731 53 80 2.0 12.0 0.00 1.14 0.97 91 1018.6
20170430023430 53 42 2.0 12.0 0.00 1.14 0.97 91 1018.5
20170430022813 54 69 3.0 12.0 0.00 1.15 0.97 90 1018.7
20170430022149 54 341 2.0 11.0 0.00 1.16 0.97 90 1018.5
20170430021851 54 84 2.0 9.0 0.00 1.16 0.97 90 1018.4
20170430020925 54 52 2.0 9.0 0.00 1.18 0.97 90 1018.8
20170430020629 54 5 1.0 9.0 0.00 1.18 0.97 90 1018.7
20170430015715 55 5 2.0 9.0 0.00 1.20 0.97 90 1018.6
20170430015413 55 46 2.0 9.0 0.00 1.20 0.97 90 1018.6
20170430013828 55 34 1.0 6.0 0.00 1.24 0.97 90 1018.5
20170430013525 55 61 1.0 8.0 0.00 1.24 0.97 90 1018.5
20170430013211 55 16 1.0 8.0 0.00 1.25 0.97 90 1018.4
20170430012909 55 20 1.0 8.0 0.00 1.25 0.97 90 1018.5
20170430012607 55 0 1.0 8.0 0.00 1.25 0.97 90 1018.5
20170430011338 56 57 1.0 7.0 0.00 1.28 0.97 90 1018.3
20170430011027 56 5 1.0 7.0 0.00 1.28 0.97 90 1018.3
20170430010421 56 30 1.0 8.0 0.00 1.28 0.97 89 1018.2
20170430005818 56 53 2.0 8.0 0.00 1.28 0.97 89 1018.1
20170430005521 56 38 2.0 13.0 0.00 1.29 0.97 89 1018.0
20170430004909 56 327 3.0 13.0 0.00 1.30 0.97 89 1018.2
20170430004258 56 17 4.0 13.0 0.00 1.31 0.97 88 1018.3
20170430004000 57 17 3.0 13.0 0.00 1.31 0.97 88 1018.2
20170430003343 57 72 2.0 11.0 0.00 1.32 0.97 88 1018.1
20170430003041 57 331 2.0 11.0 0.00 1.32 0.97 88 1018.1
20170430002428 58 46 2.0 8.0 0.00 1.32 0.97 88 1018.0
20170430001521 58 17 3.0 9.0 0.00 1.32 0.97 87 1018.0
20170430001213 58 79 2.0 9.0 0.00 1.32 0.97 87 1017.8
20170430000907 58 65 2.0 9.0 0.00 1.32 0.97 87 1018.0
20170430000605 59 334 3.0 9.0 0.00 1.32 0.97 87 1017.9
20170430000254 59 14 2.0 9.0 0.00 1.32 0.97 86 1017.9
20170429235941 59 80 2.0 9.0 0.00 1.32 0.97 86 1017.9
20170429235629 59 59 2.0 8.0 0.00 1.32 0.97 86 1018.0
20170429235030 59 138 2.0 10.0 0.00 1.32 0.97 85 1018.0
20170429234725 59 17 2.0 10.0 0.00 1.32 0.97 85 1017.9
20170429234416 60 0 2.0 10.0 0.00 1.32 0.97 84 1017.9
20170429234106 60 69 3.0 10.0 0.00 1.32 0.97 84 1017.8
20170429233805 60 67 2.0 10.0 0.00 1.32 0.97 83 1017.8
20170429233200 61 24 2.0 10.0 0.00 1.32 0.97 82 1017.9
20170429232539 62 23 2.0 8.0 0.00 1.32 0.97 81 1017.8
20170429232239 62 46 2.0 8.0 0.00 1.32 0.97 80 1017.9
20170429231939 63 46 1.0 8.0 0.00 1.32 0.97 81 1017.9
20170429231633 63 46 1.0 8.0 0.00 1.32 0.97 80 1017.9
20170429231022 64 15 1.0 7.0 0.00 1.32 0.97 79 1017.9
20170429230712 64 315 1.0 7.0 0.00 1.32 0.97 78 1017.9
20170429230407 65 15 2.0 7.0 0.00 1.32 0.97 78 1017.9
20170429230105 65 71 2.0 7.0 0.00 1.32 0.97 77 1017.9
20170429225803 66 30 2.0 9.0 0.00 1.32 0.97 77 1017.8
20170429225158 67 57 2.0 9.0 0.00 1.32 0.97 77 1017.8
20170429224857 67 52 2.0 10.0 0.00 1.32 0.97 76 1017.8
20170429224554 67 59 2.0 10.0 0.00 1.32 0.97 76 1017.9
20170429224245 68 55 2.0 10.0 0.00 1.32 0.97 75 1018.0
20170429223947 68 0 2.0 10.0 0.00 1.32 0.97 75 1017.9
20170429223642 69 355 2.0 10.0 0.00 1.32 0.97 75 1018.0
20170429222734 71 0 2.0 5.0 0.00 1.32 0.97 70 1017.8
20170429222126 73 9 1.0 5.0 0.00 1.32 0.97 69 1017.8
20170429221817 74 59 0.0 5.0 0.00 1.32 0.97 67 1017.7
20170429221509 75 33 0.0 4.0 0.00 1.32 0.97 67 1017.5
20170429220539 75 134 0.0 5.0 0.00 1.32 0.97 66 1017.5
20170429215634 75 118 0.0 3.0 0.00 1.32 0.97 66 1017.5
20170429215330 76 119 0.0 3.0 0.00 1.32 0.97 64 1017.6
20170429215028 76 141 0.0 3.0 0.00 1.32 0.97 67 1017.6
20170429214726 76 107 0.0 5.0 0.00 1.32 0.97 65 1017.5
20170429214122 76 66 0.0 2.0 0.00 1.32 0.97 66 1017.6
20170429213818 76 119 0.0 2.0 0.00 1.32 0.97 66 1017.7
20170429213508 76 159 1.0 5.0 0.00 1.32 0.97 66 1017.6
20170429213202 76 159 1.0 5.0 0.00 1.32 0.97 65 1017.7
20170429212544 76 182 1.0 3.0 0.00 1.32 0.97 65 1017.8
20170429212244 75 188 1.0 3.0 0.00 1.32 0.97 66 1017.8
20170429211941 75 217 0.0 2.0 0.00 1.32 0.97 67 1017.8
20170429211639 75 154 0.0 6.0 0.00 1.32 0.97 66 1017.9
20170429211341 75 135 0.0 6.0 0.00 1.32 0.97 66 1017.7
20170429211030 75 135 0.0 6.0 0.00 1.32 0.97 65 1017.7
20170429210716 76 171 0.0 3.0 0.00 1.32 0.97 65 1017.7
20170429210054 76 19 0.0 3.0 0.00 1.32 0.97 66 1017.7
20170429205757 76 355 0.0 3.0 0.00 1.32 0.97 65 1017.7
20170429205451 76 280 0.0 2.0 0.00 1.32 0.97 63 1017.8
20170429204833 75 242 0.0 1.0 0.00 1.32 0.97 64 1017.9
20170429204528 75 318 0.0 1.0 0.00 1.32 0.97 64 1017.9
20170429204230 75 292 0.0 1.0 0.00 1.32 0.97 65 1018.0
20170429203925 74 250 0.0 6.0 0.00 1.32 0.97 67 1018.0
20170429203002 74 165 0.0 3.0 0.00 1.32 0.97 69 1018.1
20170429201135 73 146 0.0 1.0 0.00 1.32 0.97 73 1018.1
20170429200523 73 202 0.0 3.0 0.00 1.32 0.97 73 1018.2
20170429200214 72 184 0.0 3.0 0.00 1.32 0.97 75 1018.2
20170429195902 72 271 0.0 0.0 0.00 1.32 0.97 76 1018.2
20170429195551 72 273 1.0 4.0 0.00 1.32 0.97 76 1018.3
20170429194939 72 192 0.0 4.0 0.00 1.32 0.97 76 1018.4
20170429194627 72 276 0.0 4.0 0.00 1.32 0.97 79 1018.4
20170429193725 72 5 1.0 4.0 0.00 1.32 0.97 78 1018.4
20170429193424 72 193 0.0 4.0 0.00 1.32 0.97 77 1018.3
20170429193124 72 157 1.0 4.0 0.00 1.32 0.97 77 1018.4
20170429192826 71 254 1.0 3.0 0.00 1.32 0.97 80 1018.4
20170429192217 71 221 1.0 3.0 0.00 1.32 0.97 80 1018.6
20170429191256 70 219 2.0 6.0 0.00 1.32 0.97 82 1018.5
20170429190630 69 223 2.0 6.0 0.00 1.32 0.97 83 1018.6
20170429190328 69 140 1.0 6.0 0.00 1.32 0.97 84 1018.6
20170429185726 68 243 1.0 5.0 0.00 1.32 0.97 85 1018.9
20170429185426 68 153 0.0 5.0 0.00 1.32 0.97 87 1019.0